sensor_id;sensor_type;location;lat;lon;timestamp;P1;durP1;ratioP1;P2;durP2;ratioP2
64957;SDS011;51486;50.232;19.208;2022-11-18T00:01:07;10.90;;;5.10;;
64957;SDS011;51486;50.232;19.208;2022-11-18T00:03:37;8.27;;;4.90;;
64957;SDS011;51486;50.232;19.208;2022-11-18T00:06:03;10.67;;;5.10;;
64957;SDS011;51486;50.232;19.208;2022-11-18T00:08:29;8.73;;;5.13;;
64957;SDS011;51486;50.232;19.208;2022-11-18T00:10:55;11.73;;;5.63;;
64957;SDS011;51486;50.232;19.208;2022-11-18T00:13:20;11.63;;;5.03;;
64957;SDS011;51486;50.232;19.208;2022-11-18T00:16:11;15.50;;;5.23;;
64957;SDS011;51486;50.232;19.208;2022-11-18T00:18:37;10.20;;;5.10;;
64957;SDS011;51486;50.232;19.208;2022-11-18T00:21:07;12.33;;;5.30;;
64957;SDS011;51486;50.232;19.208;2022-11-18T00:23:33;8.57;;;4.20;;
64957;SDS011;51486;50.232;19.208;2022-11-18T00:26:06;11.30;;;4.47;;
64957;SDS011;51486;50.232;19.208;2022-11-18T00:28:33;7.13;;;3.83;;
64957;SDS011;51486;50.232;19.208;2022-11-18T00:31:03;12.23;;;5.27;;
64957;SDS011;51486;50.232;19.208;2022-11-18T00:33:33;9.10;;;4.47;;
64957;SDS011;51486;50.232;19.208;2022-11-18T00:36:01;10.43;;;5.70;;
64957;SDS011;51486;50.232;19.208;2022-11-18T00:38:28;9.53;;;4.90;;
64957;SDS011;51486;50.232;19.208;2022-11-18T00:41:00;9.03;;;4.57;;
64957;SDS011;51486;50.232;19.208;2022-11-18T00:43:27;11.30;;;4.17;;
64957;SDS011;51486;50.232;19.208;2022-11-18T00:45:53;8.57;;;3.97;;
64957;SDS011;51486;50.232;19.208;2022-11-18T00:48:19;10.20;;;4.90;;
64957;SDS011;51486;50.232;19.208;2022-11-18T00:50:53;8.00;;;4.57;;
64957;SDS011;51486;50.232;19.208;2022-11-18T00:53:20;10.80;;;5.40;;
64957;SDS011;51486;50.232;19.208;2022-11-18T00:55:47;9.30;;;4.33;;
64957;SDS011;51486;50.232;19.208;2022-11-18T00:58:13;10.60;;;4.43;;
64957;SDS011;51486;50.232;19.208;2022-11-18T01:00:39;8.00;;;4.40;;
64957;SDS011;51486;50.232;19.208;2022-11-18T01:03:06;9.23;;;4.77;;
64957;SDS011;51486;50.232;19.208;2022-11-18T01:05:31;15.73;;;5.43;;
64957;SDS011;51486;50.232;19.208;2022-11-18T01:07:57;9.57;;;4.97;;
64957;SDS011;51486;50.232;19.208;2022-11-18T01:10:22;9.03;;;4.07;;
64957;SDS011;51486;50.232;19.208;2022-11-18T01:12:47;11.37;;;4.93;;
64957;SDS011;51486;50.232;19.208;2022-11-18T01:15:36;9.87;;;5.50;;
64957;SDS011;51486;50.232;19.208;2022-11-18T01:18:03;10.67;;;4.70;;
64957;SDS011;51486;50.232;19.208;2022-11-18T01:20:30;12.67;;;4.80;;
64957;SDS011;51486;50.232;19.208;2022-11-18T01:22:56;12.30;;;5.20;;
64957;SDS011;51486;50.232;19.208;2022-11-18T01:25:21;11.20;;;4.77;;
64957;SDS011;51486;50.232;19.208;2022-11-18T01:27:47;10.40;;;5.37;;
64957;SDS011;51486;50.232;19.208;2022-11-18T01:30:12;12.63;;;4.87;;
64957;SDS011;51486;50.232;19.208;2022-11-18T01:32:38;8.90;;;4.53;;
64957;SDS011;51486;50.232;19.208;2022-11-18T01:35:04;8.90;;;4.37;;
64957;SDS011;51486;50.232;19.208;2022-11-18T01:37:29;7.43;;;3.90;;
64957;SDS011;51486;50.232;19.208;2022-11-18T01:39:55;9.73;;;4.83;;
64957;SDS011;51486;50.232;19.208;2022-11-18T01:42:20;9.70;;;5.20;;
64957;SDS011;51486;50.232;19.208;2022-11-18T01:45:03;10.73;;;5.13;;
64957;SDS011;51486;50.232;19.208;2022-11-18T01:47:38;10.43;;;4.80;;
64957;SDS011;51486;50.232;19.208;2022-11-18T01:50:07;10.77;;;5.17;;
64957;SDS011;51486;50.232;19.208;2022-11-18T01:52:34;13.60;;;5.47;;
64957;SDS011;51486;50.232;19.208;2022-11-18T01:55:12;14.87;;;5.63;;
64957;SDS011;51486;50.232;19.208;2022-11-18T01:57:42;10.43;;;4.30;;
64957;SDS011;51486;50.232;19.208;2022-11-18T02:00:08;11.47;;;5.37;;
64957;SDS011;51486;50.232;19.208;2022-11-18T02:02:35;8.20;;;5.13;;
64957;SDS011;51486;50.232;19.208;2022-11-18T02:05:02;9.57;;;4.83;;
64957;SDS011;51486;50.232;19.208;2022-11-18T02:07:30;17.67;;;5.27;;
64957;SDS011;51486;50.232;19.208;2022-11-18T02:10:01;11.57;;;5.20;;
64957;SDS011;51486;50.232;19.208;2022-11-18T02:12:29;14.10;;;5.30;;
64957;SDS011;51486;50.232;19.208;2022-11-18T02:14:54;9.87;;;4.43;;
64957;SDS011;51486;50.232;19.208;2022-11-18T02:30:31;9.50;;;4.03;;
64957;SDS011;51486;50.232;19.208;2022-11-18T02:33:04;16.17;;;5.87;;
64957;SDS011;51486;50.232;19.208;2022-11-18T02:40:47;10.97;;;4.87;;
64957;SDS011;51486;50.232;19.208;2022-11-18T02:43:20;7.63;;;3.70;;
64957;SDS011;51486;50.232;19.208;2022-11-18T02:45:53;9.57;;;4.10;;
64957;SDS011;51486;50.232;19.208;2022-11-18T02:48:22;8.63;;;4.30;;
64957;SDS011;51486;50.232;19.208;2022-11-18T02:50:49;9.73;;;4.20;;
64957;SDS011;51486;50.232;19.208;2022-11-18T02:53:17;7.73;;;4.50;;
64957;SDS011;51486;50.232;19.208;2022-11-18T02:55:44;11.73;;;4.70;;
64957;SDS011;51486;50.232;19.208;2022-11-18T02:58:10;21.03;;;4.57;;
64957;SDS011;51486;50.232;19.208;2022-11-18T03:00:38;8.00;;;4.03;;
64957;SDS011;51486;50.232;19.208;2022-11-18T03:08:35;8.07;;;4.17;;
64957;SDS011;51486;50.232;19.208;2022-11-18T03:11:11;11.33;;;5.37;;
64957;SDS011;51486;50.232;19.208;2022-11-18T03:16:33;9.00;;;4.43;;
64957;SDS011;51486;50.232;19.208;2022-11-18T03:19:09;7.70;;;3.67;;
64957;SDS011;51486;50.232;19.208;2022-11-18T03:21:38;8.70;;;4.90;;
64957;SDS011;51486;50.232;19.208;2022-11-18T03:24:08;9.27;;;4.30;;
64957;SDS011;51486;50.232;19.208;2022-11-18T03:26:42;11.17;;;4.57;;
64957;SDS011;51486;50.232;19.208;2022-11-18T03:29:17;10.37;;;4.83;;
64957;SDS011;51486;50.232;19.208;2022-11-18T03:31:46;9.07;;;4.60;;
64957;SDS011;51486;50.232;19.208;2022-11-18T03:34:22;9.30;;;4.50;;
64957;SDS011;51486;50.232;19.208;2022-11-18T03:36:53;11.40;;;3.83;;
64957;SDS011;51486;50.232;19.208;2022-11-18T03:39:21;7.07;;;3.73;;
64957;SDS011;51486;50.232;19.208;2022-11-18T03:41:50;10.70;;;4.30;;
64957;SDS011;51486;50.232;19.208;2022-11-18T03:44:20;7.80;;;3.47;;
64957;SDS011;51486;50.232;19.208;2022-11-18T03:46:56;8.43;;;3.70;;
64957;SDS011;51486;50.232;19.208;2022-11-18T03:49:54;11.20;;;4.87;;
64957;SDS011;51486;50.232;19.208;2022-11-18T03:52:25;9.60;;;4.80;;
64957;SDS011;51486;50.232;19.208;2022-11-18T03:54:54;11.83;;;4.57;;
64957;SDS011;51486;50.232;19.208;2022-11-18T03:57:23;9.10;;;4.60;;
64957;SDS011;51486;50.232;19.208;2022-11-18T04:00:02;9.10;;;4.00;;
64957;SDS011;51486;50.232;19.208;2022-11-18T04:02:28;13.53;;;4.07;;
64957;SDS011;51486;50.232;19.208;2022-11-18T04:04:55;8.07;;;4.30;;
64957;SDS011;51486;50.232;19.208;2022-11-18T04:07:23;9.60;;;3.40;;
64957;SDS011;51486;50.232;19.208;2022-11-18T04:10:38;5.87;;;3.63;;
64957;SDS011;51486;50.232;19.208;2022-11-18T04:12:49;9.17;;;3.73;;
64957;SDS011;51486;50.232;19.208;2022-11-18T04:15:38;13.33;;;3.90;;
64957;SDS011;51486;50.232;19.208;2022-11-18T04:18:05;8.57;;;3.80;;
64957;SDS011;51486;50.232;19.208;2022-11-18T04:20:31;6.47;;;3.47;;
64957;SDS011;51486;50.232;19.208;2022-11-18T04:22:57;6.00;;;3.83;;
64957;SDS011;51486;50.232;19.208;2022-11-18T04:25:23;8.53;;;3.63;;
64957;SDS011;51486;50.232;19.208;2022-11-18T04:27:49;6.30;;;3.77;;
64957;SDS011;51486;50.232;19.208;2022-11-18T04:30:15;6.47;;;3.47;;
64957;SDS011;51486;50.232;19.208;2022-11-18T04:32:41;8.83;;;4.67;;
64957;SDS011;51486;50.232;19.208;2022-11-18T04:35:06;9.27;;;4.33;;
64957;SDS011;51486;50.232;19.208;2022-11-18T04:37:32;7.73;;;4.30;;
64957;SDS011;51486;50.232;19.208;2022-11-18T04:39:58;8.07;;;3.50;;
64957;SDS011;51486;50.232;19.208;2022-11-18T04:42:23;8.00;;;4.07;;
64957;SDS011;51486;50.232;19.208;2022-11-18T04:44:49;10.50;;;4.03;;
64957;SDS011;51486;50.232;19.208;2022-11-18T04:47:14;8.53;;;3.87;;
64957;SDS011;51486;50.232;19.208;2022-11-18T04:49:39;13.63;;;4.13;;
64957;SDS011;51486;50.232;19.208;2022-11-18T04:52:05;10.23;;;3.70;;
64957;SDS011;51486;50.232;19.208;2022-11-18T04:54:31;8.57;;;3.97;;
64957;SDS011;51486;50.232;19.208;2022-11-18T04:56:56;8.57;;;4.63;;
64957;SDS011;51486;50.232;19.208;2022-11-18T04:59:23;10.73;;;4.00;;
64957;SDS011;51486;50.232;19.208;2022-11-18T05:01:51;8.23;;;4.60;;
64957;SDS011;51486;50.232;19.208;2022-11-18T05:04:18;7.23;;;4.67;;
64957;SDS011;51486;50.232;19.208;2022-11-18T05:06:45;10.57;;;4.50;;
64957;SDS011;51486;50.232;19.208;2022-11-18T05:09:11;8.47;;;4.50;;
64957;SDS011;51486;50.232;19.208;2022-11-18T05:11:36;10.07;;;4.77;;
64957;SDS011;51486;50.232;19.208;2022-11-18T05:14:20;11.07;;;4.80;;
64957;SDS011;51486;50.232;19.208;2022-11-18T05:16:45;9.10;;;4.87;;
64957;SDS011;51486;50.232;19.208;2022-11-18T05:19:11;11.87;;;5.43;;
64957;SDS011;51486;50.232;19.208;2022-11-18T05:21:36;10.10;;;4.97;;
64957;SDS011;51486;50.232;19.208;2022-11-18T05:24:02;8.77;;;5.17;;
64957;SDS011;51486;50.232;19.208;2022-11-18T05:26:28;8.67;;;4.43;;
64957;SDS011;51486;50.232;19.208;2022-11-18T05:28:54;12.00;;;5.00;;
64957;SDS011;51486;50.232;19.208;2022-11-18T05:31:19;9.97;;;4.97;;
64957;SDS011;51486;50.232;19.208;2022-11-18T05:33:45;14.07;;;5.20;;
64957;SDS011;51486;50.232;19.208;2022-11-18T05:36:15;9.77;;;5.17;;
64957;SDS011;51486;50.232;19.208;2022-11-18T05:38:42;11.47;;;5.67;;
64957;SDS011;51486;50.232;19.208;2022-11-18T05:41:08;17.07;;;5.70;;
64957;SDS011;51486;50.232;19.208;2022-11-18T05:43:34;12.97;;;5.63;;
64957;SDS011;51486;50.232;19.208;2022-11-18T05:46:01;10.00;;;5.07;;
64957;SDS011;51486;50.232;19.208;2022-11-18T05:48:27;7.83;;;4.97;;
64957;SDS011;51486;50.232;19.208;2022-11-18T05:50:53;13.83;;;5.13;;
64957;SDS011;51486;50.232;19.208;2022-11-18T05:53:21;14.47;;;5.87;;
64957;SDS011;51486;50.232;19.208;2022-11-18T05:56:03;8.23;;;5.30;;
64957;SDS011;51486;50.232;19.208;2022-11-18T05:58:31;11.10;;;5.80;;
64957;SDS011;51486;50.232;19.208;2022-11-18T06:00:57;8.90;;;5.10;;
64957;SDS011;51486;50.232;19.208;2022-11-18T06:03:28;10.37;;;5.10;;
64957;SDS011;51486;50.232;19.208;2022-11-18T06:05:55;10.67;;;5.37;;
64957;SDS011;51486;50.232;19.208;2022-11-18T06:08:24;11.50;;;5.53;;
64957;SDS011;51486;50.232;19.208;2022-11-18T06:10:54;14.33;;;6.27;;
64957;SDS011;51486;50.232;19.208;2022-11-18T06:13:24;13.43;;;6.20;;
64957;SDS011;51486;50.232;19.208;2022-11-18T06:15:54;13.73;;;6.53;;
64957;SDS011;51486;50.232;19.208;2022-11-18T06:18:21;10.37;;;4.90;;
64957;SDS011;51486;50.232;19.208;2022-11-18T06:20:49;14.47;;;6.53;;
64957;SDS011;51486;50.232;19.208;2022-11-18T06:23:17;11.07;;;5.47;;
64957;SDS011;51486;50.232;19.208;2022-11-18T06:25:42;9.37;;;5.50;;
64957;SDS011;51486;50.232;19.208;2022-11-18T06:28:08;10.57;;;5.30;;
64957;SDS011;51486;50.232;19.208;2022-11-18T06:30:35;8.97;;;5.50;;
64957;SDS011;51486;50.232;19.208;2022-11-18T06:33:00;9.40;;;4.37;;
64957;SDS011;51486;50.232;19.208;2022-11-18T06:35:26;9.30;;;4.60;;
64957;SDS011;51486;50.232;19.208;2022-11-18T06:37:51;8.07;;;4.27;;
64957;SDS011;51486;50.232;19.208;2022-11-18T06:40:16;8.77;;;5.07;;
64957;SDS011;51486;50.232;19.208;2022-11-18T06:42:42;10.43;;;5.60;;
64957;SDS011;51486;50.232;19.208;2022-11-18T06:45:26;9.03;;;4.40;;
64957;SDS011;51486;50.232;19.208;2022-11-18T06:47:55;11.57;;;4.70;;
64957;SDS011;51486;50.232;19.208;2022-11-18T06:50:21;9.07;;;4.63;;
64957;SDS011;51486;50.232;19.208;2022-11-18T06:52:46;7.87;;;4.07;;
64957;SDS011;51486;50.232;19.208;2022-11-18T06:55:12;9.53;;;5.30;;
64957;SDS011;51486;50.232;19.208;2022-11-18T06:57:37;9.23;;;4.97;;
64957;SDS011;51486;50.232;19.208;2022-11-18T07:00:03;14.90;;;6.23;;
64957;SDS011;51486;50.232;19.208;2022-11-18T07:02:29;12.23;;;6.10;;
64957;SDS011;51486;50.232;19.208;2022-11-18T07:04:54;12.47;;;6.60;;
64957;SDS011;51486;50.232;19.208;2022-11-18T07:07:20;14.47;;;5.70;;
64957;SDS011;51486;50.232;19.208;2022-11-18T07:09:45;10.77;;;4.77;;
64957;SDS011;51486;50.232;19.208;2022-11-18T07:12:11;15.83;;;5.43;;
64957;SDS011;51486;50.232;19.208;2022-11-18T07:14:37;11.33;;;5.07;;
64957;SDS011;51486;50.232;19.208;2022-11-18T07:17:02;12.13;;;6.07;;
64957;SDS011;51486;50.232;19.208;2022-11-18T07:19:28;10.93;;;5.57;;
64957;SDS011;51486;50.232;19.208;2022-11-18T07:21:53;10.30;;;5.03;;
64957;SDS011;51486;50.232;19.208;2022-11-18T07:24:18;11.43;;;5.60;;
64957;SDS011;51486;50.232;19.208;2022-11-18T07:26:44;15.80;;;6.30;;
64957;SDS011;51486;50.232;19.208;2022-11-18T07:29:09;11.40;;;5.83;;
64957;SDS011;51486;50.232;19.208;2022-11-18T07:31:35;13.90;;;6.33;;
64957;SDS011;51486;50.232;19.208;2022-11-18T07:34:05;16.83;;;6.77;;
64957;SDS011;51486;50.232;19.208;2022-11-18T07:36:30;11.17;;;5.23;;
64957;SDS011;51486;50.232;19.208;2022-11-18T07:38:59;16.20;;;6.60;;
64957;SDS011;51486;50.232;19.208;2022-11-18T07:41:26;18.70;;;7.90;;
64957;SDS011;51486;50.232;19.208;2022-11-18T07:43:53;15.40;;;6.60;;
64957;SDS011;51486;50.232;19.208;2022-11-18T07:46:20;16.90;;;6.33;;
64957;SDS011;51486;50.232;19.208;2022-11-18T07:48:48;14.10;;;5.60;;
64957;SDS011;51486;50.232;19.208;2022-11-18T07:51:15;14.77;;;6.00;;
64957;SDS011;51486;50.232;19.208;2022-11-18T07:53:42;11.00;;;4.93;;
64957;SDS011;51486;50.232;19.208;2022-11-18T07:56:08;12.67;;;5.23;;
64957;SDS011;51486;50.232;19.208;2022-11-18T07:58:35;10.43;;;5.07;;
64957;SDS011;51486;50.232;19.208;2022-11-18T08:03:36;13.47;;;5.43;;
64957;SDS011;51486;50.232;19.208;2022-11-18T08:06:03;12.00;;;5.23;;
64957;SDS011;51486;50.232;19.208;2022-11-18T08:08:30;14.00;;;5.73;;
64957;SDS011;51486;50.232;19.208;2022-11-18T08:10:56;10.27;;;5.17;;
64957;SDS011;51486;50.232;19.208;2022-11-18T08:13:25;9.10;;;5.37;;
64957;SDS011;51486;50.232;19.208;2022-11-18T08:15:52;10.70;;;4.97;;
64957;SDS011;51486;50.232;19.208;2022-11-18T08:18:18;12.80;;;5.03;;
64957;SDS011;51486;50.232;19.208;2022-11-18T08:20:44;8.77;;;4.30;;
64957;SDS011;51486;50.232;19.208;2022-11-18T08:23:10;9.90;;;4.83;;
64957;SDS011;51486;50.232;19.208;2022-11-18T08:25:36;14.67;;;4.93;;
64957;SDS011;51486;50.232;19.208;2022-11-18T08:28:01;10.60;;;4.27;;
64957;SDS011;51486;50.232;19.208;2022-11-18T08:30:27;10.20;;;4.67;;
64957;SDS011;51486;50.232;19.208;2022-11-18T08:32:52;6.87;;;3.80;;
64957;SDS011;51486;50.232;19.208;2022-11-18T08:35:17;9.77;;;4.37;;
64957;SDS011;51486;50.232;19.208;2022-11-18T08:37:43;10.00;;;4.50;;
64957;SDS011;51486;50.232;19.208;2022-11-18T08:40:08;7.97;;;4.33;;
64957;SDS011;51486;50.232;19.208;2022-11-18T08:42:34;8.70;;;3.90;;
64957;SDS011;51486;50.232;19.208;2022-11-18T08:45:02;10.70;;;4.67;;
64957;SDS011;51486;50.232;19.208;2022-11-18T08:47:29;12.07;;;5.17;;
64957;SDS011;51486;50.232;19.208;2022-11-18T08:49:54;8.80;;;4.67;;
64957;SDS011;51486;50.232;19.208;2022-11-18T08:52:20;17.73;;;5.80;;
64957;SDS011;51486;50.232;19.208;2022-11-18T08:54:45;12.00;;;5.13;;
64957;SDS011;51486;50.232;19.208;2022-11-18T08:57:10;10.57;;;5.63;;
64957;SDS011;51486;50.232;19.208;2022-11-18T08:59:36;11.43;;;5.17;;
64957;SDS011;51486;50.232;19.208;2022-11-18T09:02:01;9.13;;;4.90;;
64957;SDS011;51486;50.232;19.208;2022-11-18T09:04:26;9.87;;;4.40;;
64957;SDS011;51486;50.232;19.208;2022-11-18T09:06:52;15.90;;;5.17;;
64957;SDS011;51486;50.232;19.208;2022-11-18T09:09:17;14.33;;;6.33;;
64957;SDS011;51486;50.232;19.208;2022-11-18T09:11:43;13.13;;;5.87;;
64957;SDS011;51486;50.232;19.208;2022-11-18T09:14:09;18.17;;;6.40;;
64957;SDS011;51486;50.232;19.208;2022-11-18T09:16:36;15.63;;;6.33;;
64957;SDS011;51486;50.232;19.208;2022-11-18T09:19:01;15.23;;;6.73;;
64957;SDS011;51486;50.232;19.208;2022-11-18T09:21:27;17.93;;;6.50;;
64957;SDS011;51486;50.232;19.208;2022-11-18T09:23:52;11.97;;;5.00;;
64957;SDS011;51486;50.232;19.208;2022-11-18T09:26:18;20.17;;;6.07;;
64957;SDS011;51486;50.232;19.208;2022-11-18T09:28:46;10.13;;;5.40;;
64957;SDS011;51486;50.232;19.208;2022-11-18T09:31:13;15.07;;;6.63;;
64957;SDS011;51486;50.232;19.208;2022-11-18T09:33:40;17.70;;;6.07;;
64957;SDS011;51486;50.232;19.208;2022-11-18T09:36:16;11.77;;;6.00;;
64957;SDS011;51486;50.232;19.208;2022-11-18T09:38:46;10.40;;;5.90;;
64957;SDS011;51486;50.232;19.208;2022-11-18T09:49:40;13.83;;;5.13;;
64957;SDS011;51486;50.232;19.208;2022-11-18T09:52:16;13.43;;;5.90;;
64957;SDS011;51486;50.232;19.208;2022-11-18T09:54:43;15.27;;;5.70;;
64957;SDS011;51486;50.232;19.208;2022-11-18T09:57:16;12.13;;;6.03;;
64957;SDS011;51486;50.232;19.208;2022-11-18T09:59:43;16.10;;;6.93;;
64957;SDS011;51486;50.232;19.208;2022-11-18T10:08:25;12.27;;;6.00;;
64957;SDS011;51486;50.232;19.208;2022-11-18T10:18:55;12.50;;;6.00;;
64957;SDS011;51486;50.232;19.208;2022-11-18T10:24:02;13.30;;;6.47;;
64957;SDS011;51486;50.232;19.208;2022-11-18T10:26:36;14.00;;;6.43;;
64957;SDS011;51486;50.232;19.208;2022-11-18T10:29:04;13.57;;;6.23;;
64957;SDS011;51486;50.232;19.208;2022-11-18T10:31:38;16.57;;;7.10;;
64957;SDS011;51486;50.232;19.208;2022-11-18T10:34:16;18.17;;;6.63;;
64957;SDS011;51486;50.232;19.208;2022-11-18T10:36:43;14.83;;;6.50;;
64957;SDS011;51486;50.232;19.208;2022-11-18T10:39:11;20.53;;;7.83;;
64957;SDS011;51486;50.232;19.208;2022-11-18T10:41:42;18.90;;;8.60;;
64957;SDS011;51486;50.232;19.208;2022-11-18T10:49:46;23.20;;;9.53;;
64957;SDS011;51486;50.232;19.208;2022-11-18T10:52:12;18.40;;;8.97;;
64957;SDS011;51486;50.232;19.208;2022-11-18T10:54:38;20.37;;;9.60;;
64957;SDS011;51486;50.232;19.208;2022-11-18T10:57:05;20.67;;;9.33;;
64957;SDS011;51486;50.232;19.208;2022-11-18T10:59:44;24.60;;;8.60;;
64957;SDS011;51486;50.232;19.208;2022-11-18T11:05:15;19.80;;;9.20;;
64957;SDS011;51486;50.232;19.208;2022-11-18T11:07:43;19.77;;;9.97;;
64957;SDS011;51486;50.232;19.208;2022-11-18T11:15:57;18.97;;;9.30;;
64957;SDS011;51486;50.232;19.208;2022-11-18T11:18:02;19.70;;;9.17;;
64957;SDS011;51486;50.232;19.208;2022-11-18T11:20:50;20.97;;;9.20;;
64957;SDS011;51486;50.232;19.208;2022-11-18T11:23:15;17.53;;;8.37;;
64957;SDS011;51486;50.232;19.208;2022-11-18T11:28:25;17.43;;;9.17;;
64957;SDS011;51486;50.232;19.208;2022-11-18T11:42:14;21.43;;;7.43;;
64957;SDS011;51486;50.232;19.208;2022-11-18T11:55:58;22.37;;;8.13;;
64957;SDS011;51486;50.232;19.208;2022-11-18T11:58:38;18.30;;;7.73;;
64957;SDS011;51486;50.232;19.208;2022-11-18T12:01:15;14.80;;;6.90;;
64957;SDS011;51486;50.232;19.208;2022-11-18T12:03:46;14.70;;;7.30;;
64957;SDS011;51486;50.232;19.208;2022-11-18T12:06:16;15.80;;;7.87;;
64957;SDS011;51486;50.232;19.208;2022-11-18T12:09:02;17.73;;;8.03;;
64957;SDS011;51486;50.232;19.208;2022-11-18T12:11:36;15.00;;;7.23;;
64957;SDS011;51486;50.232;19.208;2022-11-18T12:14:23;18.50;;;7.27;;
64957;SDS011;51486;50.232;19.208;2022-11-18T12:17:17;18.50;;;7.67;;
64957;SDS011;51486;50.232;19.208;2022-11-18T12:19:49;17.10;;;8.57;;
64957;SDS011;51486;50.232;19.208;2022-11-18T12:22:15;17.40;;;8.07;;
64957;SDS011;51486;50.232;19.208;2022-11-18T12:24:40;24.87;;;9.43;;
64957;SDS011;51486;50.232;19.208;2022-11-18T12:37:38;16.33;;;6.87;;
64957;SDS011;51486;50.232;19.208;2022-11-18T12:40:07;19.13;;;8.03;;
64957;SDS011;51486;50.232;19.208;2022-11-18T12:42:40;15.13;;;7.90;;
64957;SDS011;51486;50.232;19.208;2022-11-18T12:50:51;19.57;;;9.17;;
64957;SDS011;51486;50.232;19.208;2022-11-18T12:53:29;19.23;;;8.77;;
64957;SDS011;51486;50.232;19.208;2022-11-18T12:56:10;21.90;;;8.67;;
64957;SDS011;51486;50.232;19.208;2022-11-18T12:58:54;26.07;;;9.30;;
64957;SDS011;51486;50.232;19.208;2022-11-18T13:01:25;19.53;;;9.03;;
64957;SDS011;51486;50.232;19.208;2022-11-18T13:04:04;21.13;;;9.67;;
64957;SDS011;51486;50.232;19.208;2022-11-18T13:06:31;17.67;;;7.73;;
64957;SDS011;51486;50.232;19.208;2022-11-18T13:08:59;18.43;;;7.33;;
64957;SDS011;51486;50.232;19.208;2022-11-18T13:11:26;25.30;;;8.50;;
64957;SDS011;51486;50.232;19.208;2022-11-18T13:14:13;18.10;;;7.97;;
64957;SDS011;51486;50.232;19.208;2022-11-18T13:16:59;19.07;;;7.70;;
64957;SDS011;51486;50.232;19.208;2022-11-18T13:19:53;20.27;;;8.87;;
64957;SDS011;51486;50.232;19.208;2022-11-18T13:22:21;19.90;;;8.27;;
64957;SDS011;51486;50.232;19.208;2022-11-18T13:25:18;17.50;;;8.90;;
64957;SDS011;51486;50.232;19.208;2022-11-18T13:28:06;19.10;;;8.33;;
64957;SDS011;51486;50.232;19.208;2022-11-18T13:30:43;18.17;;;8.77;;
64957;SDS011;51486;50.232;19.208;2022-11-18T13:33:15;19.20;;;8.77;;
64957;SDS011;51486;50.232;19.208;2022-11-18T13:35:40;25.50;;;8.20;;
64957;SDS011;51486;50.232;19.208;2022-11-18T13:38:15;20.67;;;8.13;;
64957;SDS011;51486;50.232;19.208;2022-11-18T13:40:44;18.80;;;7.87;;
64957;SDS011;51486;50.232;19.208;2022-11-18T13:43:29;15.87;;;7.10;;
64957;SDS011;51486;50.232;19.208;2022-11-18T13:45:57;16.57;;;8.03;;
64957;SDS011;51486;50.232;19.208;2022-11-18T13:48:28;18.47;;;7.83;;
64957;SDS011;51486;50.232;19.208;2022-11-18T13:50:56;17.70;;;7.73;;
64957;SDS011;51486;50.232;19.208;2022-11-18T13:55:58;19.40;;;7.30;;
64957;SDS011;51486;50.232;19.208;2022-11-18T13:58:43;20.30;;;8.07;;
64957;SDS011;51486;50.232;19.208;2022-11-18T14:06:08;23.10;;;9.47;;
64957;SDS011;51486;50.232;19.208;2022-11-18T14:08:34;16.20;;;6.70;;
64957;SDS011;51486;50.232;19.208;2022-11-18T14:11:01;20.73;;;9.00;;
64957;SDS011;51486;50.232;19.208;2022-11-18T14:13:46;15.67;;;8.00;;
64957;SDS011;51486;50.232;19.208;2022-11-18T14:18:43;22.17;;;8.93;;
64957;SDS011;51486;50.232;19.208;2022-11-18T14:21:10;24.73;;;9.87;;
64957;SDS011;51486;50.232;19.208;2022-11-18T14:23:36;20.07;;;8.83;;
64957;SDS011;51486;50.232;19.208;2022-11-18T14:26:06;19.37;;;8.93;;
64957;SDS011;51486;50.232;19.208;2022-11-18T14:28:37;22.20;;;9.03;;
64957;SDS011;51486;50.232;19.208;2022-11-18T14:34:02;29.50;;;10.70;;
64957;SDS011;51486;50.232;19.208;2022-11-18T14:36:41;21.70;;;9.33;;
64957;SDS011;51486;50.232;19.208;2022-11-18T14:39:12;26.90;;;10.53;;
64957;SDS011;51486;50.232;19.208;2022-11-18T14:41:58;22.13;;;9.37;;
64957;SDS011;51486;50.232;19.208;2022-11-18T14:44:24;23.43;;;10.00;;
64957;SDS011;51486;50.232;19.208;2022-11-18T14:46:52;24.47;;;9.97;;
64957;SDS011;51486;50.232;19.208;2022-11-18T14:49:21;21.93;;;9.57;;
64957;SDS011;51486;50.232;19.208;2022-11-18T14:51:49;18.43;;;9.13;;
64957;SDS011;51486;50.232;19.208;2022-11-18T14:54:16;23.87;;;9.73;;
64957;SDS011;51486;50.232;19.208;2022-11-18T14:56:43;28.03;;;10.97;;
64957;SDS011;51486;50.232;19.208;2022-11-18T14:59:13;26.10;;;9.57;;
64957;SDS011;51486;50.232;19.208;2022-11-18T15:01:40;22.50;;;9.57;;
64957;SDS011;51486;50.232;19.208;2022-11-18T15:04:07;22.50;;;10.20;;
64957;SDS011;51486;50.232;19.208;2022-11-18T15:06:32;19.60;;;9.73;;
64957;SDS011;51486;50.232;19.208;2022-11-18T15:08:58;21.37;;;7.47;;
64957;SDS011;51486;50.232;19.208;2022-11-18T15:11:23;17.13;;;7.83;;
64957;SDS011;51486;50.232;19.208;2022-11-18T15:13:49;17.73;;;7.13;;
64957;SDS011;51486;50.232;19.208;2022-11-18T15:16:18;18.77;;;7.80;;
64957;SDS011;51486;50.232;19.208;2022-11-18T15:18:49;16.50;;;7.07;;
64957;SDS011;51486;50.232;19.208;2022-11-18T15:21:16;15.13;;;7.47;;
64957;SDS011;51486;50.232;19.208;2022-11-18T15:23:42;19.80;;;7.53;;
64957;SDS011;51486;50.232;19.208;2022-11-18T15:28:44;15.13;;;7.57;;
64957;SDS011;51486;50.232;19.208;2022-11-18T15:31:11;11.37;;;6.27;;
64957;SDS011;51486;50.232;19.208;2022-11-18T15:33:36;16.23;;;7.00;;
64957;SDS011;51486;50.232;19.208;2022-11-18T15:36:02;15.30;;;6.70;;
64957;SDS011;51486;50.232;19.208;2022-11-18T15:38:27;18.80;;;7.53;;
64957;SDS011;51486;50.232;19.208;2022-11-18T15:40:52;14.53;;;7.00;;
64957;SDS011;51486;50.232;19.208;2022-11-18T15:43:18;15.30;;;6.80;;
64957;SDS011;51486;50.232;19.208;2022-11-18T15:45:43;21.47;;;8.53;;
64957;SDS011;51486;50.232;19.208;2022-11-18T15:48:08;23.80;;;9.23;;
64957;SDS011;51486;50.232;19.208;2022-11-18T15:50:34;26.67;;;11.87;;
64957;SDS011;51486;50.232;19.208;2022-11-18T15:52:59;23.60;;;9.87;;
64957;SDS011;51486;50.232;19.208;2022-11-18T15:55:25;17.97;;;8.53;;
64957;SDS011;51486;50.232;19.208;2022-11-18T15:57:50;26.50;;;9.03;;
64957;SDS011;51486;50.232;19.208;2022-11-18T16:00:16;18.83;;;8.13;;
64957;SDS011;51486;50.232;19.208;2022-11-18T16:02:42;22.43;;;9.90;;
64957;SDS011;51486;50.232;19.208;2022-11-18T16:05:07;19.13;;;9.07;;
64957;SDS011;51486;50.232;19.208;2022-11-18T16:07:33;19.50;;;8.07;;
64957;SDS011;51486;50.232;19.208;2022-11-18T16:09:58;19.17;;;8.17;;
64957;SDS011;51486;50.232;19.208;2022-11-18T16:12:42;16.10;;;7.93;;
64957;SDS011;51486;50.232;19.208;2022-11-18T16:15:11;15.63;;;7.07;;
64957;SDS011;51486;50.232;19.208;2022-11-18T16:17:55;15.57;;;7.00;;
64957;SDS011;51486;50.232;19.208;2022-11-18T16:20:21;17.47;;;7.27;;
64957;SDS011;51486;50.232;19.208;2022-11-18T16:22:46;14.37;;;7.60;;
64957;SDS011;51486;50.232;19.208;2022-11-18T16:25:12;16.70;;;7.07;;
64957;SDS011;51486;50.232;19.208;2022-11-18T16:27:38;18.10;;;7.77;;
64957;SDS011;51486;50.232;19.208;2022-11-18T16:30:03;17.93;;;8.37;;
64957;SDS011;51486;50.232;19.208;2022-11-18T16:32:29;18.83;;;7.97;;
64957;SDS011;51486;50.232;19.208;2022-11-18T16:34:55;18.07;;;8.83;;
64957;SDS011;51486;50.232;19.208;2022-11-18T16:37:21;25.60;;;9.30;;
64957;SDS011;51486;50.232;19.208;2022-11-18T16:39:47;30.13;;;9.03;;